Time;durP1;ratioP1;P1;durP2;ratioP2;P2;SDS_P1;SDS_P2;PMS_P1;PMS_P2;Temp;Humidity;BMP_temperature;BMP_pressure;BME280_temperature;BME280_humidity;BME280_pressure;Samples;Min_cycle;Max_cycle;Signal;HPM_P1;HPM_P2
2022/10/18 17:35:40;;;;;;;7.68;2.50;;;13.70;99.90;;;;;;6263419;22;103185;-83
2022/10/18 17:38:06;;;;;;;9.95;2.58;;;13.70;99.90;;;;;;6273044;22;20064;-84
2022/10/18 17:40:32;;;;;;;9.65;3.17;;;13.70;99.90;;;;;;6245188;22;20076;-84
2022/10/18 17:42:58;;;;;;;7.32;2.33;;;13.70;99.90;;;;;;6271879;22;20445;-84
2022/10/18 17:45:24;;;;;;;5.68;1.50;;;13.70;99.90;;;;;;6272635;22;20077;-84
2022/10/18 17:47:50;;;;;;;11.05;1.67;;;13.70;99.90;;;;;;6272765;22;20344;-84
2022/10/18 17:50:16;;;;;;;7.15;1.67;;;13.70;99.90;;;;;;6246094;22;20016;-84
2022/10/18 17:52:44;;;;;;;9.05;1.40;;;13.70;99.90;;;;;;6219523;22;20011;-84
2022/10/18 17:55:10;;;;;;;6.80;1.58;;;13.60;99.90;;;;;;6272736;22;20412;-84
2022/10/18 17:57:37;;;;;;;8.95;1.63;;;13.60;99.90;;;;;;6272455;22;20047;-84
2022/10/18 18:00:04;;;;;;;9.65;1.45;;;13.60;99.90;;;;;;6272127;22;20069;-84
2022/10/18 18:02:30;;;;;;;7.03;1.40;;;13.60;99.90;;;;;;6244716;22;20051;-83
2022/10/18 18:04:56;;;;;;;6.57;2.28;;;13.50;99.90;;;;;;6272632;22;20132;-84
2022/10/18 18:07:21;;;;;;;8.73;1.30;;;13.50;99.90;;;;;;6245470;22;20023;-84
2022/10/18 18:09:47;;;;;;;9.98;2.50;;;13.50;99.90;;;;;;6272629;22;20016;-84
2022/10/18 18:12:13;;;;;;;9.75;1.77;;;13.40;99.90;;;;;;6272375;22;20435;-86
2022/10/18 18:14:38;;;;;;;9.32;1.33;;;13.40;99.90;;;;;;6272546;22;20043;-84
2022/10/18 18:17:04;;;;;;;8.70;1.08;;;13.40;99.90;;;;;;6272606;22;20014;-84
2022/10/18 18:19:30;;;;;;;9.50;1.42;;;13.40;99.90;;;;;;6219663;22;20016;-85
2022/10/18 18:21:57;;;;;;;9.32;1.92;;;13.40;99.90;;;;;;6248650;22;20015;-84
2022/10/18 18:24:24;;;;;;;6.97;1.73;;;13.40;99.90;;;;;;6274776;22;20020;-84
2022/10/18 18:26:52;;;;;;;11.18;1.85;;;13.40;99.90;;;;;;6246478;22;20023;-85
2022/10/18 18:29:19;;;;;;;7.28;1.55;;;13.30;99.90;;;;;;6274549;22;20016;-84
2022/10/18 18:31:45;;;;;;;7.53;1.10;;;13.40;99.90;;;;;;6272596;22;20041;-85
2022/10/18 18:34:11;;;;;;;7.10;1.40;;;13.40;99.90;;;;;;6244694;22;20015;-85
2022/10/18 18:36:37;;;;;;;8.20;1.48;;;13.40;99.90;;;;;;6273950;22;20305;-87
2022/10/18 18:39:04;;;;;;;8.82;1.20;;;13.30;99.90;;;;;;6246944;22;20079;-87
2022/10/18 18:41:30;;;;;;;6.80;1.30;;;13.30;99.90;;;;;;6221031;22;20042;-87
2022/10/18 18:44:03;;;;;;;12.80;1.60;;;13.20;99.90;;;;;;6246988;22;20023;-87
2022/10/18 18:46:36;;;;;;;6.55;1.20;;;13.20;99.90;;;;;;6247918;22;20091;-87
2022/10/18 18:49:03;;;;;;;6.43;1.80;;;13.20;99.90;;;;;;6273137;22;20011;-86
2022/10/18 18:51:29;;;;;;;6.63;1.40;;;13.20;99.90;;;;;;6273712;22;20012;-86
2022/10/18 18:53:55;;;;;;;6.70;1.30;;;13.10;99.90;;;;;;6246178;22;20019;-86
2022/10/18 18:56:23;;;;;;;6.95;1.50;;;13.20;99.90;;;;;;6246611;22;20012;-85
2022/10/18 18:58:49;;;;;;;9.02;2.20;;;13.10;99.90;;;;;;6272669;22;20026;-87
2022/10/18 19:01:18;;;;;;;7.00;1.70;;;13.10;99.90;;;;;;6274285;22;20092;-86
2022/10/18 19:03:46;;;;;;;7.65;1.73;;;13.10;99.90;;;;;;6246851;22;20020;-87
2022/10/18 19:06:16;;;;;;;5.85;1.90;;;13.10;99.90;;;;;;6246857;22;20038;-86
2022/10/18 19:08:46;;;;;;;6.90;1.85;;;13.00;99.90;;;;;;6246533;22;20015;-87
2022/10/18 19:11:17;;;;;;;11.65;2.08;;;13.00;99.90;;;;;;6246498;22;20018;-87
2022/10/18 19:13:43;;;;;;;9.40;2.17;;;13.00;99.90;;;;;;6273459;22;20082;-86
2022/10/18 19:16:16;;;;;;;10.38;2.30;;;13.00;99.90;;;;;;6274019;22;20379;-86
2022/10/18 19:18:42;;;;;;;8.68;2.42;;;13.00;99.90;;;;;;6221427;22;20095;-85
2022/10/18 19:21:07;;;;;;;9.77;2.97;;;13.00;99.90;;;;;;6274021;22;20051;-86
2022/10/18 19:23:33;;;;;;;12.18;5.53;;;13.00;99.90;;;;;;6274366;22;20462;-87
2022/10/18 19:26:16;;;;;;;11.57;6.75;;;13.00;99.90;;;;;;6274631;22;20051;-86
2022/10/18 19:28:42;;;;;;;33.60;19.70;;;13.00;99.90;;;;;;6274104;22;20011;-87
2022/10/18 19:31:09;;;;;;;30.00;17.67;;;13.00;99.90;;;;;;6247688;22;20077;-86
2022/10/18 19:33:34;;;;;;;23.63;15.77;;;13.00;99.90;;;;;;6247071;22;20072;-86
2022/10/18 19:36:00;;;;;;;25.55;11.63;;;13.00;99.90;;;;;;6247462;22;20065;-86
2022/10/18 19:38:26;;;;;;;12.52;8.15;;;13.00;99.90;;;;;;6246763;22;20023;-86
2022/10/18 19:40:52;;;;;;;12.65;4.93;;;13.00;99.90;;;;;;6274646;22;20358;-86
2022/10/18 19:43:18;;;;;;;12.80;7.57;;;13.00;99.90;;;;;;6247074;22;20233;-86
2022/10/18 19:45:44;;;;;;;10.80;5.32;;;13.00;99.90;;;;;;6246899;22;20077;-85
2022/10/18 19:48:10;;;;;;;13.57;4.57;;;13.00;99.90;;;;;;6220655;22;20339;-86
2022/10/18 19:50:35;;;;;;;9.05;2.58;;;13.00;99.90;;;;;;6246612;22;20030;-86
2022/10/18 19:53:01;;;;;;;11.25;2.83;;;12.90;99.90;;;;;;6245906;22;20023;-86
2022/10/18 19:55:27;;;;;;;11.82;2.47;;;12.90;99.90;;;;;;6273812;22;20012;-87
2022/10/18 19:57:53;;;;;;;8.45;2.10;;;12.90;99.90;;;;;;6246789;22;20015;-86
2022/10/18 20:00:22;;;;;;;8.90;3.17;;;12.90;99.90;;;;;;6273821;22;20008;-87
2022/10/18 20:02:48;;;;;;;7.65;4.25;;;12.90;99.90;;;;;;6274046;22;20016;-87
2022/10/18 20:05:13;;;;;;;11.23;3.42;;;12.90;99.90;;;;;;6272980;22;20072;-87
2022/10/18 20:07:40;;;;;;;6.95;2.30;;;12.90;99.90;;;;;;6246657;22;20016;-86
2022/10/18 20:10:05;;;;;;;5.80;2.40;;;12.90;99.90;;;;;;6272018;22;20459;-85
2022/10/18 20:12:31;;;;;;;9.00;2.28;;;12.90;99.90;;;;;;6246368;22;20074;-86
2022/10/18 20:14:57;;;;;;;7.18;1.98;;;12.90;99.90;;;;;;6273879;22;20015;-86
2022/10/18 20:17:23;;;;;;;5.82;1.67;;;12.90;99.90;;;;;;6273937;22;20369;-86
2022/10/18 20:19:48;;;;;;;7.28;1.65;;;12.90;99.90;;;;;;6273478;22;20004;-85
2022/10/18 20:22:14;;;;;;;6.85;1.45;;;12.90;99.90;;;;;;6245503;22;20012;-85
2022/10/18 20:24:40;;;;;;;8.25;2.15;;;12.90;99.90;;;;;;6273622;22;20015;-85
2022/10/18 20:27:05;;;;;;;9.25;2.00;;;12.90;99.90;;;;;;6245409;22;20011;-85
2022/10/18 20:29:32;;;;;;;7.15;1.63;;;12.90;99.90;;;;;;6246911;22;20428;-85
2022/10/18 20:31:58;;;;;;;6.57;1.90;;;12.90;99.90;;;;;;6273520;22;20016;-85
2022/10/18 20:34:24;;;;;;;6.53;1.85;;;12.90;99.90;;;;;;6272549;22;20097;-85
2022/10/18 20:36:53;;;;;;;7.60;2.00;;;12.90;99.90;;;;;;6244313;22;20023;-85
2022/10/18 20:39:19;;;;;;;5.07;1.30;;;12.80;99.90;;;;;;6273704;22;20402;-85
2022/10/18 20:41:45;;;;;;;9.18;1.50;;;12.80;99.90;;;;;;6220468;22;20327;-85
2022/10/18 20:44:14;;;;;;;5.38;1.20;;;12.80;99.90;;;;;;6245877;22;20078;-85
2022/10/18 20:46:41;;;;;;;7.30;1.40;;;12.80;99.90;;;;;;6247019;22;20016;-85
2022/10/18 20:49:09;;;;;;;7.35;1.33;;;12.80;99.90;;;;;;6245370;22;20065;-85
2022/10/18 20:51:35;;;;;;;7.72;1.70;;;12.80;99.90;;;;;;6272898;22;20385;-85
2022/10/18 20:54:03;;;;;;;11.27;2.15;;;12.70;99.90;;;;;;6246018;22;20015;-85
2022/10/18 20:56:30;;;;;;;6.07;1.55;;;12.70;99.90;;;;;;6272825;22;20114;-85
2022/10/18 20:58:56;;;;;;;7.60;1.35;;;12.70;99.90;;;;;;6244492;22;20040;-85
2022/10/18 21:01:30;;;;;;;8.13;1.85;;;12.70;99.90;;;;;;6246524;22;20008;-85
2022/10/18 21:03:58;;;;;;;5.68;1.27;;;12.60;99.90;;;;;;6268578;22;20051;-83
2022/10/18 21:06:30;;;;;;;5.28;1.58;;;12.60;99.90;;;;;;6243141;22;20501;-83
2022/10/18 21:08:58;;;;;;;6.10;1.30;;;12.60;99.90;;;;;;6271750;22;20461;-83
2022/10/18 21:11:25;;;;;;;6.88;1.60;;;12.60;99.90;;;;;;6246225;22;20020;-83
2022/10/18 21:13:58;;;;;;;12.30;1.65;;;12.60;99.90;;;;;;6245670;22;20018;-82
2022/10/18 21:16:24;;;;;;;4.72;1.00;;;12.50;99.90;;;;;;6271607;22;20022;-82
2022/10/18 21:18:49;;;;;;;9.18;1.50;;;12.50;99.90;;;;;;6245745;22;20011;-83
2022/10/18 21:21:18;;;;;;;10.32;1.90;;;12.40;99.90;;;;;;6244900;22;20043;-83
2022/10/18 21:23:44;;;;;;;7.32;1.67;;;12.40;99.90;;;;;;6269299;22;20012;-83
2022/10/18 21:26:16;;;;;;;8.57;1.50;;;12.30;99.90;;;;;;6271604;22;20016;-83
2022/10/18 21:28:42;;;;;;;6.95;1.58;;;12.30;99.90;;;;;;6245082;22;20022;-82
2022/10/18 21:31:19;;;;;;;9.07;2.15;;;12.20;99.90;;;;;;6244046;22;20081;-83
2022/10/18 21:33:45;;;;;;;5.03;1.70;;;12.20;99.90;;;;;;6270322;22;20016;-82
2022/10/18 21:36:12;;;;;;;6.47;1.65;;;12.00;99.90;;;;;;6272482;22;20451;-82
2022/10/18 21:38:37;;;;;;;7.95;2.05;;;12.00;99.90;;;;;;6243916;22;20012;-82
2022/10/18 21:41:09;;;;;;;9.13;2.40;;;12.00;99.90;;;;;;6271776;22;20443;-82
2022/10/18 21:43:34;;;;;;;10.18;2.28;;;11.90;99.90;;;;;;6271818;22;20024;-82
2022/10/18 21:46:00;;;;;;;10.13;4.05;;;11.80;99.90;;;;;;6271853;22;20054;-82
2022/10/18 21:48:26;;;;;;;11.02;3.13;;;11.80;99.90;;;;;;6244006;22;20091;-82
2022/10/18 21:50:52;;;;;;;11.23;5.45;;;11.70;99.90;;;;;;6244862;22;20354;-82
2022/10/18 21:53:18;;;;;;;11.77;4.22;;;11.60;99.90;;;;;;6271184;22;20019;-82
2022/10/18 21:55:44;;;;;;;15.57;3.75;;;11.50;99.90;;;;;;6244415;22;20459;-82
2022/10/18 21:58:10;;;;;;;6.53;2.58;;;11.40;99.90;;;;;;6272086;22;20055;-81
2022/10/18 22:00:35;;;;;;;9.35;2.55;;;11.40;99.90;;;;;;6271816;22;20035;-82
2022/10/18 22:03:06;;;;;;;8.27;2.38;;;11.30;99.90;;;;;;6243698;22;20015;-82
2022/10/18 22:05:31;;;;;;;9.25;1.98;;;11.20;99.90;;;;;;6244443;22;20336;-82
2022/10/18 22:07:57;;;;;;;11.93;2.58;;;11.10;99.90;;;;;;6271626;22;20015;-82
2022/10/18 22:10:23;;;;;;;12.65;2.08;;;11.00;99.90;;;;;;6245094;22;20015;-81
2022/10/18 22:12:48;;;;;;;13.05;2.42;;;11.00;99.90;;;;;;6271491;22;20008;-82
2022/10/18 22:15:14;;;;;;;4.60;1.50;;;10.90;99.90;;;;;;6244722;22;20051;-82
2022/10/18 22:17:39;;;;;;;7.40;1.90;;;10.80;99.90;;;;;;6244006;22;20020;-82
2022/10/18 22:20:05;;;;;;;12.82;2.63;;;10.80;99.90;;;;;;6245261;22;20023;-82
2022/10/18 22:22:31;;;;;;;9.23;2.03;;;10.70;99.90;;;;;;6244606;22;20704;-82
2022/10/18 22:24:57;;;;;;;22.38;3.85;;;10.70;99.90;;;;;;6244618;22;20019;-83
2022/10/18 22:27:22;;;;;;;9.65;3.10;;;10.60;99.90;;;;;;6271825;22;20114;-81
2022/10/18 22:29:48;;;;;;;8.13;2.22;;;10.60;99.90;;;;;;6244467;22;20008;-82
2022/10/18 22:32:14;;;;;;;6.03;1.50;;;10.50;99.90;;;;;;6272292;22;20019;-82
2022/10/18 22:34:39;;;;;;;8.77;1.70;;;10.50;99.90;;;;;;6271629;22;20444;-82
2022/10/18 22:37:05;;;;;;;6.13;2.00;;;10.50;99.90;;;;;;6272167;22;20016;-82
2022/10/18 22:39:30;;;;;;;8.65;2.72;;;10.40;99.90;;;;;;6272923;22;20081;-82
2022/10/18 22:41:56;;;;;;;9.55;1.98;;;10.40;99.90;;;;;;6271867;22;20077;-81
2022/10/18 22:44:22;;;;;;;6.88;1.88;;;10.40;99.90;;;;;;6245063;22;20015;-82
2022/10/18 22:46:48;;;;;;;9.10;1.60;;;10.30;99.90;;;;;;6244501;22;20015;-82
2022/10/18 22:49:14;;;;;;;5.88;1.27;;;10.30;99.90;;;;;;6245362;22;20101;-82
2022/10/18 22:51:40;;;;;;;7.93;1.60;;;10.20;99.90;;;;;;6272451;22;20327;-82
2022/10/18 22:54:05;;;;;;;7.32;1.17;;;10.10;99.90;;;;;;6245130;22;20015;-82
2022/10/18 22:56:31;;;;;;;7.32;1.48;;;10.10;99.90;;;;;;6244759;22;20589;-82
2022/10/18 22:58:56;;;;;;;8.85;1.30;;;10.10;99.90;;;;;;6244449;22;20015;-83
2022/10/18 23:01:23;;;;;;;5.38;1.48;;;10.10;99.90;;;;;;6244912;22;20343;-82
2022/10/18 23:03:53;;;;;;;8.45;1.83;;;10.00;99.90;;;;;;6271948;22;20018;-82
2022/10/18 23:06:31;;;;;;;7.80;1.13;;;9.90;99.90;;;;;;6244987;22;20092;-82
2022/10/18 23:08:59;;;;;;;7.28;1.40;;;9.90;99.90;;;;;;6244363;22;20026;-82
2022/10/18 23:11:26;;;;;;;8.20;1.50;;;9.80;99.90;;;;;;6272404;22;20012;-82
2022/10/18 23:13:52;;;;;;;6.82;1.48;;;9.90;99.90;;;;;;6271736;22;20023;-82
2022/10/18 23:16:18;;;;;;;7.05;1.02;;;9.90;99.90;;;;;;6244098;22;20020;-82
2022/10/18 23:18:48;;;;;;;11.02;1.50;;;9.90;99.90;;;;;;6245602;22;20012;-82
2022/10/18 23:21:14;;;;;;;7.85;1.85;;;9.90;99.90;;;;;;6271790;22;20015;-82
2022/10/18 23:23:41;;;;;;;8.15;1.30;;;9.90;99.90;;;;;;6271874;22;20015;-82
2022/10/18 23:26:10;;;;;;;5.40;1.48;;;10.00;99.90;;;;;;6244448;22;20016;-82
2022/10/18 23:28:37;;;;;;;7.38;1.55;;;10.00;99.90;;;;;;6270705;22;20012;-81
2022/10/18 23:31:12;;;;;;;7.72;1.40;;;10.00;99.90;;;;;;6271030;22;20403;-82
2022/10/18 23:33:39;;;;;;;7.43;1.33;;;10.00;99.90;;;;;;6271698;22;20008;-82
2022/10/18 23:36:06;;;;;;;5.63;1.45;;;10.10;99.90;;;;;;6243934;22;20027;-82
2022/10/18 23:38:32;;;;;;;8.18;1.80;;;10.10;99.90;;;;;;6244311;22;20477;-82
2022/10/18 23:40:58;;;;;;;8.07;2.22;;;10.10;99.90;;;;;;6271727;22;20012;-82
2022/10/18 23:43:23;;;;;;;8.20;1.95;;;9.90;99.90;;;;;;6272208;22;20104;-82
2022/10/18 23:45:49;;;;;;;6.43;1.55;;;10.10;99.90;;;;;;6270552;22;20347;-82
2022/10/18 23:48:15;;;;;;;7.55;1.98;;;10.10;99.90;;;;;;6244641;22;20094;-82
2022/10/18 23:50:41;;;;;;;8.95;1.35;;;10.10;99.90;;;;;;6271719;22;20018;-82
2022/10/18 23:53:07;;;;;;;7.93;1.50;;;10.10;99.90;;;;;;6271645;22;20012;-81
2022/10/18 23:55:33;;;;;;;5.00;1.23;;;10.20;99.90;;;;;;6219334;22;20451;-82
2022/10/18 23:57:59;;;;;;;7.15;1.35;;;10.20;99.90;;;;;;6243779;22;20351;-82
